EDT,Max TemperatureF,Mean TemperatureF,Min TemperatureF,Max Dew PointF,MeanDew PointF,Min DewpointF,Max Humidity, Mean Humidity, Min Humidity, Max Sea Level PressureIn, Mean Sea Level PressureIn, Min Sea Level PressureIn, Max VisibilityMiles, Mean VisibilityMiles, Min VisibilityMiles, Max Wind SpeedMPH, Mean Wind SpeedMPH, Max Gust SpeedMPH,PrecipitationIn, CloudCover, Events, WindDirDegrees
2013-9-1,,,,,,,,,,30.02,29.97,29.91,10,9,8,24,4,37,0.07,1,,197
2013-9-2,,,,,,,,,,30.04,29.98,29.92,10,10,8,12,5,,0.00,0,,212
2013-9-3,,,,,,,,,,30.04,29.99,29.94,10,9,5,13,4,21,0.00,0,,224
2013-9-4,,,,,,,,,,30.11,30.05,30.00,10,9,4,18,3,26,0.00,0,,190
2013-9-5,,,,,,,,,,30.13,30.08,30.03,10,10,8,9,2,,0.00,0,,96
2013-9-6,,,,,,,,,,30.08,30.05,30.01,10,8,3,21,2,29,0.21,2,,300
2013-9-7,,,,,,,,,,30.04,30.01,29.97,10,7,0,8,4,,0.00,2,,358
2013-9-8,,,,,,,,,,30.00,29.96,29.92,10,8,5,14,5,21,0.00,1,,22
2013-9-9,,,,,,,,,,30.07,30.02,29.97,10,9,8,13,3,18,0.00,0,,52
2013-9-10,,,,,,,,,,30.14,30.09,30.04,10,9,7,17,4,22,0.00,1,,60
2013-9-11,,,,,,,,,,30.12,30.08,30.04,10,9,7,14,5,20,0.00,1,,47
2013-9-12,,,,,,,,,,30.05,29.99,29.92,10,9,1,14,2,21,0.24,1,,52
2013-9-13,,,,,,,,,,29.93,29.88,29.81,10,10,5,10,2,,0.00,0,,180
2013-9-14,,,,,,,,,,30.01,29.92,29.85,10,9,7,8,3,,0.00,0,,166
2013-9-15,,,,,,,,,,30.12,30.05,30.00,10,8,5,16,3,22,0.00,1,,91
2013-9-16,,,,,,,,,,30.11,30.07,30.02,10,9,7,14,4,17,0.00,0,,82
2013-9-17,,,,,,,,,,30.11,30.06,30.03,10,9,1,14,2,,0.09,1,,22
2013-9-18,,,,,,,,,,30.08,30.05,30.01,10,7,1,18,6,29,0.19,1,,41
2013-9-19,,,,,,,,,,30.08,30.05,30.02,10,8,3,16,4,23,0.02,1,,53
2013-9-20,,,,,,,,,,30.06,30.01,29.95,10,10,8,14,3,17,0.00,0,,56
2013-9-21,,,,,,,,,,29.98,29.87,29.79,10,10,7,10,2,,0.00,1,,122
2013-9-22,,,,,,,,,,29.88,29.82,29.78,10,9,2,14,5,21,0.47,1,,202
2013-9-23,,,,,,,,,,29.99,29.93,29.87,10,7,2,12,2,,0.13,2,,129
2013-9-24,,,,,,,,,,29.98,29.91,29.86,10,8,2,13,5,17,0.91,4,,203
2013-9-25,,,,,,,,,,29.86,29.82,29.79,10,9,5,13,6,17,0.00,3,,238
2013-9-26,,,,,,,,,,29.89,29.82,29.78,10,8,5,15,8,22,0.00,2,,277
2013-9-27,,,,,,,,,,29.99,29.95,29.91,10,7,1,15,6,21,0.22,3,,352
2013-9-28,,,,,,,,,,29.99,29.96,29.95,9,5,2,8,3,,0.03,2,,1
2013-9-29,,,,,,,,,,,,,,,,,,,,,,
2013-9-30,,,,,,,,,,,,,,,,,,,,,,